sensor_id;sensor_type;location;lat;lon;timestamp;P1;durP1;ratioP1;P2;durP2;ratioP2
19812;SDS011;10066;48.108;11.448;2023-02-28T00:00:31;4.00;;;2.47;;
19812;SDS011;10066;48.108;11.448;2023-02-28T00:03:00;4.40;;;2.50;;
19812;SDS011;10066;48.108;11.448;2023-02-28T00:05:27;4.40;;;2.47;;
19812;SDS011;10066;48.108;11.448;2023-02-28T00:07:55;4.87;;;2.50;;
19812;SDS011;10066;48.108;11.448;2023-02-28T00:10:23;4.77;;;2.37;;
19812;SDS011;10066;48.108;11.448;2023-02-28T00:12:52;4.23;;;2.50;;
19812;SDS011;10066;48.108;11.448;2023-02-28T00:15:22;4.17;;;2.23;;
19812;SDS011;10066;48.108;11.448;2023-02-28T00:17:49;3.33;;;2.40;;
19812;SDS011;10066;48.108;11.448;2023-02-28T00:20:18;4.87;;;2.57;;
19812;SDS011;10066;48.108;11.448;2023-02-28T00:22:46;4.17;;;2.30;;
19812;SDS011;10066;48.108;11.448;2023-02-28T00:25:16;1.87;;;1.50;;
19812;SDS011;10066;48.108;11.448;2023-02-28T00:27:44;4.47;;;2.33;;
19812;SDS011;10066;48.108;11.448;2023-02-28T00:30:12;5.13;;;2.53;;
19812;SDS011;10066;48.108;11.448;2023-02-28T00:32:42;5.50;;;2.80;;
19812;SDS011;10066;48.108;11.448;2023-02-28T00:35:09;4.10;;;2.50;;
19812;SDS011;10066;48.108;11.448;2023-02-28T00:37:39;6.37;;;2.57;;
19812;SDS011;10066;48.108;11.448;2023-02-28T00:40:09;3.73;;;2.43;;
19812;SDS011;10066;48.108;11.448;2023-02-28T00:42:37;3.63;;;2.63;;
19812;SDS011;10066;48.108;11.448;2023-02-28T00:45:05;4.87;;;2.50;;
19812;SDS011;10066;48.108;11.448;2023-02-28T00:47:33;4.77;;;3.00;;
19812;SDS011;10066;48.108;11.448;2023-02-28T00:50:01;6.40;;;2.67;;
19812;SDS011;10066;48.108;11.448;2023-02-28T00:52:28;4.43;;;2.43;;
19812;SDS011;10066;48.108;11.448;2023-02-28T00:54:57;3.63;;;2.40;;
19812;SDS011;10066;48.108;11.448;2023-02-28T00:57:24;4.03;;;2.60;;
19812;SDS011;10066;48.108;11.448;2023-02-28T00:59:51;4.00;;;2.77;;
19812;SDS011;10066;48.108;11.448;2023-02-28T01:02:19;3.70;;;2.57;;
19812;SDS011;10066;48.108;11.448;2023-02-28T01:04:46;4.87;;;2.53;;
19812;SDS011;10066;48.108;11.448;2023-02-28T01:07:13;3.53;;;2.73;;
19812;SDS011;10066;48.108;11.448;2023-02-28T01:09:40;3.43;;;2.43;;
19812;SDS011;10066;48.108;11.448;2023-02-28T01:12:08;3.67;;;2.67;;
19812;SDS011;10066;48.108;11.448;2023-02-28T01:14:35;3.87;;;2.63;;
19812;SDS011;10066;48.108;11.448;2023-02-28T01:17:02;3.83;;;2.40;;
19812;SDS011;10066;48.108;11.448;2023-02-28T01:19:30;4.40;;;2.63;;
19812;SDS011;10066;48.108;11.448;2023-02-28T01:21:59;3.63;;;2.80;;
19812;SDS011;10066;48.108;11.448;2023-02-28T01:24:27;5.40;;;3.03;;
19812;SDS011;10066;48.108;11.448;2023-02-28T01:26:54;5.13;;;2.87;;
19812;SDS011;10066;48.108;11.448;2023-02-28T01:29:22;4.70;;;2.70;;
19812;SDS011;10066;48.108;11.448;2023-02-28T01:31:50;4.27;;;2.80;;
19812;SDS011;10066;48.108;11.448;2023-02-28T01:34:17;4.27;;;2.67;;
19812;SDS011;10066;48.108;11.448;2023-02-28T01:36:45;4.50;;;2.60;;
19812;SDS011;10066;48.108;11.448;2023-02-28T01:39:12;5.83;;;2.97;;
19812;SDS011;10066;48.108;11.448;2023-02-28T01:41:39;5.77;;;3.00;;
19812;SDS011;10066;48.108;11.448;2023-02-28T01:44:07;6.27;;;3.20;;
19812;SDS011;10066;48.108;11.448;2023-02-28T01:47:13;4.57;;;2.70;;
19812;SDS011;10066;48.108;11.448;2023-02-28T01:49:41;6.30;;;3.03;;
19812;SDS011;10066;48.108;11.448;2023-02-28T01:52:08;3.20;;;1.53;;
19812;SDS011;10066;48.108;11.448;2023-02-28T01:54:39;6.53;;;3.20;;
19812;SDS011;10066;48.108;11.448;2023-02-28T01:57:07;6.90;;;3.13;;
19812;SDS011;10066;48.108;11.448;2023-02-28T01:59:38;4.20;;;3.00;;
19812;SDS011;10066;48.108;11.448;2023-02-28T02:02:11;2.67;;;1.73;;
19812;SDS011;10066;48.108;11.448;2023-02-28T02:04:41;5.03;;;3.03;;
19812;SDS011;10066;48.108;11.448;2023-02-28T02:07:13;5.47;;;3.23;;
19812;SDS011;10066;48.108;11.448;2023-02-28T02:09:44;6.13;;;3.47;;
19812;SDS011;10066;48.108;11.448;2023-02-28T02:12:12;4.47;;;3.37;;
19812;SDS011;10066;48.108;11.448;2023-02-28T02:14:55;5.43;;;3.33;;
19812;SDS011;10066;48.108;11.448;2023-02-28T02:17:34;4.00;;;2.40;;
19812;SDS011;10066;48.108;11.448;2023-02-28T02:23:22;4.10;;;2.33;;
19812;SDS011;10066;48.108;11.448;2023-02-28T02:26:21;4.30;;;2.00;;
19812;SDS011;10066;48.108;11.448;2023-02-28T02:29:07;6.13;;;3.10;;
19812;SDS011;10066;48.108;11.448;2023-02-28T02:32:01;4.83;;;2.90;;
19812;SDS011;10066;48.108;11.448;2023-02-28T02:34:59;4.80;;;3.00;;
19812;SDS011;10066;48.108;11.448;2023-02-28T02:37:33;4.17;;;2.37;;
19812;SDS011;10066;48.108;11.448;2023-02-28T02:40:09;6.63;;;3.70;;
19812;SDS011;10066;48.108;11.448;2023-02-28T02:42:41;5.47;;;3.57;;
19812;SDS011;10066;48.108;11.448;2023-02-28T02:45:14;3.27;;;2.10;;
19812;SDS011;10066;48.108;11.448;2023-02-28T02:47:47;4.60;;;2.80;;
19812;SDS011;10066;48.108;11.448;2023-02-28T02:50:17;4.70;;;2.63;;
19812;SDS011;10066;48.108;11.448;2023-02-28T02:52:50;6.53;;;3.20;;
19812;SDS011;10066;48.108;11.448;2023-02-28T02:55:21;6.90;;;3.40;;
19812;SDS011;10066;48.108;11.448;2023-02-28T02:57:50;3.83;;;2.30;;
19812;SDS011;10066;48.108;11.448;2023-02-28T03:00:20;3.27;;;2.40;;
19812;SDS011;10066;48.108;11.448;2023-02-28T03:02:52;4.47;;;2.93;;
19812;SDS011;10066;48.108;11.448;2023-02-28T03:05:23;4.83;;;3.17;;
19812;SDS011;10066;48.108;11.448;2023-02-28T03:07:53;6.17;;;3.10;;
19812;SDS011;10066;48.108;11.448;2023-02-28T03:10:30;5.07;;;3.60;;
19812;SDS011;10066;48.108;11.448;2023-02-28T03:13:09;4.87;;;3.53;;
19812;SDS011;10066;48.108;11.448;2023-02-28T03:15:55;5.10;;;3.03;;
19812;SDS011;10066;48.108;11.448;2023-02-28T03:18:36;5.03;;;3.47;;
19812;SDS011;10066;48.108;11.448;2023-02-28T03:21:14;6.27;;;3.77;;
19812;SDS011;10066;48.108;11.448;2023-02-28T03:23:50;4.77;;;2.70;;
19812;SDS011;10066;48.108;11.448;2023-02-28T03:26:22;5.77;;;3.90;;
19812;SDS011;10066;48.108;11.448;2023-02-28T03:28:53;6.17;;;3.83;;
19812;SDS011;10066;48.108;11.448;2023-02-28T03:31:29;5.17;;;3.43;;
19812;SDS011;10066;48.108;11.448;2023-02-28T03:33:59;7.73;;;2.73;;
19812;SDS011;10066;48.108;11.448;2023-02-28T03:36:33;6.43;;;3.73;;
19812;SDS011;10066;48.108;11.448;2023-02-28T03:39:08;7.07;;;3.20;;
19812;SDS011;10066;48.108;11.448;2023-02-28T03:41:40;8.30;;;4.00;;
19812;SDS011;10066;48.108;11.448;2023-02-28T03:44:13;5.53;;;3.03;;
19812;SDS011;10066;48.108;11.448;2023-02-28T03:46:45;6.13;;;3.63;;
19812;SDS011;10066;48.108;11.448;2023-02-28T03:49:18;5.13;;;3.67;;
19812;SDS011;10066;48.108;11.448;2023-02-28T03:51:50;6.47;;;3.27;;
19812;SDS011;10066;48.108;11.448;2023-02-28T03:54:19;3.67;;;2.27;;
19812;SDS011;10066;48.108;11.448;2023-02-28T03:56:53;6.03;;;4.10;;
19812;SDS011;10066;48.108;11.448;2023-02-28T03:59:26;5.30;;;3.97;;
19812;SDS011;10066;48.108;11.448;2023-02-28T04:01:56;4.40;;;2.40;;
19812;SDS011;10066;48.108;11.448;2023-02-28T04:04:24;3.53;;;2.30;;
19812;SDS011;10066;48.108;11.448;2023-02-28T04:06:53;7.10;;;4.23;;
19812;SDS011;10066;48.108;11.448;2023-02-28T04:09:28;9.97;;;4.27;;
19812;SDS011;10066;48.108;11.448;2023-02-28T04:11:55;9.17;;;4.63;;
19812;SDS011;10066;48.108;11.448;2023-02-28T04:14:22;5.50;;;3.50;;
19812;SDS011;10066;48.108;11.448;2023-02-28T04:16:49;2.93;;;2.10;;
19812;SDS011;10066;48.108;11.448;2023-02-28T04:19:17;6.47;;;4.40;;
19812;SDS011;10066;48.108;11.448;2023-02-28T04:21:45;8.83;;;4.90;;
19812;SDS011;10066;48.108;11.448;2023-02-28T04:24:15;7.37;;;4.30;;
19812;SDS011;10066;48.108;11.448;2023-02-28T04:26:48;7.00;;;4.13;;
19812;SDS011;10066;48.108;11.448;2023-02-28T04:29:18;7.90;;;5.20;;
19812;SDS011;10066;48.108;11.448;2023-02-28T04:31:47;10.13;;;4.73;;
19812;SDS011;10066;48.108;11.448;2023-02-28T04:34:14;11.90;;;5.63;;
19812;SDS011;10066;48.108;11.448;2023-02-28T04:36:41;8.73;;;5.53;;
19812;SDS011;10066;48.108;11.448;2023-02-28T04:39:08;10.10;;;5.60;;
19812;SDS011;10066;48.108;11.448;2023-02-28T04:41:37;4.30;;;2.80;;
19812;SDS011;10066;48.108;11.448;2023-02-28T04:44:04;7.90;;;5.13;;
19812;SDS011;10066;48.108;11.448;2023-02-28T04:46:31;12.13;;;6.47;;
19812;SDS011;10066;48.108;11.448;2023-02-28T04:48:58;11.00;;;6.40;;
19812;SDS011;10066;48.108;11.448;2023-02-28T04:51:25;9.90;;;5.23;;
19812;SDS011;10066;48.108;11.448;2023-02-28T04:53:52;13.17;;;6.27;;
19812;SDS011;10066;48.108;11.448;2023-02-28T04:56:19;10.00;;;6.93;;
19812;SDS011;10066;48.108;11.448;2023-02-28T04:58:47;6.30;;;3.57;;
19812;SDS011;10066;48.108;11.448;2023-02-28T05:01:17;13.43;;;6.73;;
19812;SDS011;10066;48.108;11.448;2023-02-28T05:03:46;11.07;;;7.30;;
19812;SDS011;10066;48.108;11.448;2023-02-28T05:06:13;11.03;;;6.43;;
19812;SDS011;10066;48.108;11.448;2023-02-28T05:08:41;10.57;;;6.67;;
19812;SDS011;10066;48.108;11.448;2023-02-28T05:11:11;9.53;;;5.47;;
19812;SDS011;10066;48.108;11.448;2023-02-28T05:13:40;11.30;;;6.67;;
19812;SDS011;10066;48.108;11.448;2023-02-28T05:16:09;12.63;;;7.70;;
19812;SDS011;10066;48.108;11.448;2023-02-28T05:18:35;12.00;;;8.20;;
19812;SDS011;10066;48.108;11.448;2023-02-28T05:21:02;9.03;;;5.90;;
19812;SDS011;10066;48.108;11.448;2023-02-28T05:23:29;7.53;;;5.03;;
19812;SDS011;10066;48.108;11.448;2023-02-28T05:25:56;13.67;;;7.67;;
19812;SDS011;10066;48.108;11.448;2023-02-28T05:28:23;11.33;;;6.70;;
19812;SDS011;10066;48.108;11.448;2023-02-28T05:30:51;11.03;;;7.47;;
19812;SDS011;10066;48.108;11.448;2023-02-28T05:33:19;8.67;;;5.57;;
19812;SDS011;10066;48.108;11.448;2023-02-28T05:35:46;15.77;;;8.23;;
19812;SDS011;10066;48.108;11.448;2023-02-28T05:38:13;14.57;;;8.70;;
19812;SDS011;10066;48.108;11.448;2023-02-28T05:40:40;8.87;;;6.00;;
19812;SDS011;10066;48.108;11.448;2023-02-28T05:43:10;13.73;;;8.23;;
19812;SDS011;10066;48.108;11.448;2023-02-28T05:45:37;14.03;;;7.50;;
19812;SDS011;10066;48.108;11.448;2023-02-28T05:48:05;15.17;;;8.77;;
19812;SDS011;10066;48.108;11.448;2023-02-28T05:50:34;14.03;;;9.20;;
19812;SDS011;10066;48.108;11.448;2023-02-28T05:53:00;14.40;;;9.50;;
19812;SDS011;10066;48.108;11.448;2023-02-28T05:55:28;16.63;;;9.83;;
19812;SDS011;10066;48.108;11.448;2023-02-28T05:57:55;18.90;;;9.10;;
19812;SDS011;10066;48.108;11.448;2023-02-28T06:00:22;14.97;;;9.03;;
19812;SDS011;10066;48.108;11.448;2023-02-28T06:02:49;14.17;;;9.47;;
19812;SDS011;10066;48.108;11.448;2023-02-28T06:05:18;11.30;;;7.17;;
19812;SDS011;10066;48.108;11.448;2023-02-28T06:07:46;10.10;;;6.87;;
19812;SDS011;10066;48.108;11.448;2023-02-28T06:10:13;11.27;;;6.63;;
19812;SDS011;10066;48.108;11.448;2023-02-28T06:12:40;16.93;;;10.40;;
19812;SDS011;10066;48.108;11.448;2023-02-28T06:15:09;15.97;;;10.50;;
19812;SDS011;10066;48.108;11.448;2023-02-28T06:17:38;13.03;;;9.07;;
19812;SDS011;10066;48.108;11.448;2023-02-28T06:20:05;14.27;;;10.40;;
19812;SDS011;10066;48.108;11.448;2023-02-28T06:22:34;16.53;;;10.73;;
19812;SDS011;10066;48.108;11.448;2023-02-28T06:25:03;12.47;;;8.30;;
19812;SDS011;10066;48.108;11.448;2023-02-28T06:27:30;15.33;;;10.07;;
19812;SDS011;10066;48.108;11.448;2023-02-28T06:29:57;15.13;;;10.33;;
19812;SDS011;10066;48.108;11.448;2023-02-28T06:32:24;13.07;;;8.30;;
19812;SDS011;10066;48.108;11.448;2023-02-28T06:34:51;16.17;;;9.83;;
19812;SDS011;10066;48.108;11.448;2023-02-28T06:37:19;15.40;;;10.30;;
19812;SDS011;10066;48.108;11.448;2023-02-28T06:39:47;17.60;;;10.43;;
19812;SDS011;10066;48.108;11.448;2023-02-28T06:42:16;20.37;;;12.03;;
19812;SDS011;10066;48.108;11.448;2023-02-28T06:44:42;10.63;;;7.17;;
19812;SDS011;10066;48.108;11.448;2023-02-28T06:47:09;18.57;;;11.43;;
19812;SDS011;10066;48.108;11.448;2023-02-28T06:49:36;23.43;;;12.23;;
19812;SDS011;10066;48.108;11.448;2023-02-28T06:52:04;16.80;;;11.33;;
19812;SDS011;10066;48.108;11.448;2023-02-28T06:54:31;15.67;;;10.80;;
19812;SDS011;10066;48.108;11.448;2023-02-28T06:56:58;16.30;;;10.63;;
19812;SDS011;10066;48.108;11.448;2023-02-28T06:59:26;17.23;;;11.30;;
19812;SDS011;10066;48.108;11.448;2023-02-28T07:01:53;19.93;;;11.40;;
19812;SDS011;10066;48.108;11.448;2023-02-28T07:04:21;15.87;;;10.73;;
19812;SDS011;10066;48.108;11.448;2023-02-28T07:06:48;16.43;;;10.87;;
19812;SDS011;10066;48.108;11.448;2023-02-28T07:09:15;15.73;;;10.10;;
19812;SDS011;10066;48.108;11.448;2023-02-28T07:11:42;17.50;;;10.47;;
19812;SDS011;10066;48.108;11.448;2023-02-28T07:14:09;17.17;;;11.17;;
19812;SDS011;10066;48.108;11.448;2023-02-28T07:16:37;16.43;;;10.70;;
19812;SDS011;10066;48.108;11.448;2023-02-28T07:19:04;15.07;;;8.93;;
19812;SDS011;10066;48.108;11.448;2023-02-28T07:21:31;16.27;;;11.07;;
19812;SDS011;10066;48.108;11.448;2023-02-28T07:23:58;17.13;;;11.30;;
19812;SDS011;10066;48.108;11.448;2023-02-28T07:26:25;15.97;;;10.57;;
19812;SDS011;10066;48.108;11.448;2023-02-28T07:28:52;18.53;;;11.50;;
19812;SDS011;10066;48.108;11.448;2023-02-28T07:31:19;13.73;;;8.93;;
19812;SDS011;10066;48.108;11.448;2023-02-28T07:33:47;16.00;;;11.30;;
19812;SDS011;10066;48.108;11.448;2023-02-28T07:36:15;17.60;;;11.20;;
19812;SDS011;10066;48.108;11.448;2023-02-28T07:38:45;17.20;;;11.43;;
19812;SDS011;10066;48.108;11.448;2023-02-28T07:41:14;16.47;;;11.00;;
19812;SDS011;10066;48.108;11.448;2023-02-28T07:43:42;14.43;;;10.53;;
19812;SDS011;10066;48.108;11.448;2023-02-28T07:46:10;16.83;;;11.50;;
19812;SDS011;10066;48.108;11.448;2023-02-28T07:48:40;18.00;;;12.40;;
19812;SDS011;10066;48.108;11.448;2023-02-28T07:51:08;17.43;;;11.20;;
19812;SDS011;10066;48.108;11.448;2023-02-28T07:53:35;16.93;;;11.63;;
19812;SDS011;10066;48.108;11.448;2023-02-28T07:56:02;16.57;;;11.13;;
19812;SDS011;10066;48.108;11.448;2023-02-28T07:58:30;17.37;;;10.50;;
19812;SDS011;10066;48.108;11.448;2023-02-28T08:00:57;15.90;;;10.80;;
19812;SDS011;10066;48.108;11.448;2023-02-28T08:03:31;16.80;;;10.03;;
19812;SDS011;10066;48.108;11.448;2023-02-28T08:05:58;15.43;;;9.53;;
19812;SDS011;10066;48.108;11.448;2023-02-28T08:08:26;15.73;;;10.40;;
19812;SDS011;10066;48.108;11.448;2023-02-28T08:10:57;16.23;;;11.07;;
19812;SDS011;10066;48.108;11.448;2023-02-28T08:13:26;19.13;;;11.80;;
19812;SDS011;10066;48.108;11.448;2023-02-28T08:15:53;16.20;;;11.77;;
19812;SDS011;10066;48.108;11.448;2023-02-28T08:18:20;15.10;;;10.90;;
19812;SDS011;10066;48.108;11.448;2023-02-28T08:20:48;18.33;;;11.37;;
19812;SDS011;10066;48.108;11.448;2023-02-28T08:23:15;16.40;;;10.87;;
19812;SDS011;10066;48.108;11.448;2023-02-28T08:25:43;17.17;;;10.77;;
19812;SDS011;10066;48.108;11.448;2023-02-28T08:28:10;16.37;;;11.23;;
19812;SDS011;10066;48.108;11.448;2023-02-28T08:30:37;21.43;;;11.53;;
19812;SDS011;10066;48.108;11.448;2023-02-28T08:33:06;16.73;;;10.77;;
19812;SDS011;10066;48.108;11.448;2023-02-28T08:35:34;15.60;;;10.87;;
19812;SDS011;10066;48.108;11.448;2023-02-28T08:38:02;18.30;;;11.27;;
19812;SDS011;10066;48.108;11.448;2023-02-28T08:40:29;15.17;;;10.50;;
19812;SDS011;10066;48.108;11.448;2023-02-28T08:42:57;18.67;;;11.43;;
19812;SDS011;10066;48.108;11.448;2023-02-28T08:45:24;17.03;;;11.70;;
19812;SDS011;10066;48.108;11.448;2023-02-28T08:47:51;21.13;;;11.73;;
19812;SDS011;10066;48.108;11.448;2023-02-28T08:50:20;17.50;;;11.03;;
19812;SDS011;10066;48.108;11.448;2023-02-28T08:52:47;10.67;;;6.33;;
19812;SDS011;10066;48.108;11.448;2023-02-28T08:55:14;17.93;;;11.30;;
19812;SDS011;10066;48.108;11.448;2023-02-28T08:57:41;16.30;;;11.10;;
19812;SDS011;10066;48.108;11.448;2023-02-28T09:00:10;18.57;;;11.33;;
19812;SDS011;10066;48.108;11.448;2023-02-28T09:02:38;16.30;;;10.80;;
19812;SDS011;10066;48.108;11.448;2023-02-28T09:05:05;13.73;;;10.57;;
19812;SDS011;10066;48.108;11.448;2023-02-28T09:07:34;17.23;;;10.80;;
19812;SDS011;10066;48.108;11.448;2023-02-28T09:10:01;16.13;;;9.97;;
19812;SDS011;10066;48.108;11.448;2023-02-28T09:12:28;16.17;;;10.00;;
19812;SDS011;10066;48.108;11.448;2023-02-28T09:14:59;15.47;;;10.27;;
19812;SDS011;10066;48.108;11.448;2023-02-28T09:17:27;16.10;;;10.37;;
19812;SDS011;10066;48.108;11.448;2023-02-28T09:19:54;17.33;;;11.53;;
19812;SDS011;10066;48.108;11.448;2023-02-28T09:22:22;17.97;;;11.00;;
19812;SDS011;10066;48.108;11.448;2023-02-28T09:24:48;20.63;;;10.53;;
19812;SDS011;10066;48.108;11.448;2023-02-28T09:27:15;16.23;;;10.40;;
19812;SDS011;10066;48.108;11.448;2023-02-28T09:29:42;16.37;;;10.97;;
19812;SDS011;10066;48.108;11.448;2023-02-28T09:32:09;17.93;;;10.87;;
19812;SDS011;10066;48.108;11.448;2023-02-28T09:34:38;18.23;;;10.47;;
19812;SDS011;10066;48.108;11.448;2023-02-28T09:37:05;17.57;;;11.97;;
19812;SDS011;10066;48.108;11.448;2023-02-28T09:39:32;18.07;;;12.43;;
19812;SDS011;10066;48.108;11.448;2023-02-28T09:42:03;17.97;;;12.03;;
19812;SDS011;10066;48.108;11.448;2023-02-28T09:44:34;18.37;;;11.03;;
19812;SDS011;10066;48.108;11.448;2023-02-28T09:47:05;15.87;;;9.57;;
19812;SDS011;10066;48.108;11.448;2023-02-28T09:49:41;16.90;;;11.60;;
19812;SDS011;10066;48.108;11.448;2023-02-28T09:52:12;8.47;;;4.50;;
19812;SDS011;10066;48.108;11.448;2023-02-28T09:54:43;13.80;;;8.80;;
19812;SDS011;10066;48.108;11.448;2023-02-28T09:57:13;17.60;;;12.23;;
19812;SDS011;10066;48.108;11.448;2023-02-28T09:59:55;14.47;;;10.13;;
19812;SDS011;10066;48.108;11.448;2023-02-28T10:02:41;17.03;;;12.07;;
19812;SDS011;10066;48.108;11.448;2023-02-28T10:05:14;15.43;;;10.73;;
19812;SDS011;10066;48.108;11.448;2023-02-28T10:07:48;14.93;;;9.73;;
19812;SDS011;10066;48.108;11.448;2023-02-28T10:10:24;20.93;;;11.60;;
19812;SDS011;10066;48.108;11.448;2023-02-28T10:12:59;18.40;;;10.83;;
19812;SDS011;10066;48.108;11.448;2023-02-28T10:15:29;17.13;;;10.77;;
19812;SDS011;10066;48.108;11.448;2023-02-28T10:17:58;18.97;;;10.17;;
19812;SDS011;10066;48.108;11.448;2023-02-28T10:20:30;11.97;;;7.03;;
19812;SDS011;10066;48.108;11.448;2023-02-28T10:23:07;15.37;;;11.03;;
19812;SDS011;10066;48.108;11.448;2023-02-28T10:25:38;14.63;;;11.10;;
19812;SDS011;10066;48.108;11.448;2023-02-28T10:28:09;17.03;;;10.67;;
19812;SDS011;10066;48.108;11.448;2023-02-28T10:30:46;15.73;;;8.87;;
19812;SDS011;10066;48.108;11.448;2023-02-28T10:33:17;17.37;;;10.70;;
19812;SDS011;10066;48.108;11.448;2023-02-28T10:35:55;15.47;;;10.53;;
19812;SDS011;10066;48.108;11.448;2023-02-28T10:38:24;15.63;;;10.90;;
19812;SDS011;10066;48.108;11.448;2023-02-28T10:40:52;15.47;;;10.93;;
19812;SDS011;10066;48.108;11.448;2023-02-28T10:43:31;17.07;;;10.80;;
19812;SDS011;10066;48.108;11.448;2023-02-28T10:45:59;15.10;;;10.90;;
19812;SDS011;10066;48.108;11.448;2023-02-28T10:48:30;16.10;;;10.23;;
19812;SDS011;10066;48.108;11.448;2023-02-28T10:51:02;16.50;;;10.40;;
19812;SDS011;10066;48.108;11.448;2023-02-28T10:53:31;18.53;;;11.80;;
19812;SDS011;10066;48.108;11.448;2023-02-28T10:56:01;14.30;;;8.97;;
19812;SDS011;10066;48.108;11.448;2023-02-28T10:58:31;16.33;;;11.20;;
19812;SDS011;10066;48.108;11.448;2023-02-28T11:01:12;16.83;;;10.40;;
19812;SDS011;10066;48.108;11.448;2023-02-28T11:03:41;19.97;;;11.20;;
19812;SDS011;10066;48.108;11.448;2023-02-28T11:06:13;14.83;;;10.37;;
19812;SDS011;10066;48.108;11.448;2023-02-28T11:08:43;15.67;;;11.33;;
19812;SDS011;10066;48.108;11.448;2023-02-28T11:11:15;17.00;;;8.60;;
19812;SDS011;10066;48.108;11.448;2023-02-28T11:13:43;17.30;;;10.93;;
19812;SDS011;10066;48.108;11.448;2023-02-28T11:16:13;15.73;;;10.90;;
19812;SDS011;10066;48.108;11.448;2023-02-28T11:18:47;19.07;;;10.67;;
19812;SDS011;10066;48.108;11.448;2023-02-28T11:21:18;16.73;;;10.53;;
19812;SDS011;10066;48.108;11.448;2023-02-28T11:23:49;14.27;;;10.30;;
19812;SDS011;10066;48.108;11.448;2023-02-28T11:29:12;16.83;;;9.83;;
19812;SDS011;10066;48.108;11.448;2023-02-28T11:31:59;17.30;;;10.53;;
19812;SDS011;10066;48.108;11.448;2023-02-28T11:34:28;14.50;;;9.47;;
19812;SDS011;10066;48.108;11.448;2023-02-28T11:36:58;15.83;;;10.07;;
19812;SDS011;10066;48.108;11.448;2023-02-28T11:39:30;14.93;;;9.37;;
19812;SDS011;10066;48.108;11.448;2023-02-28T11:42:10;14.30;;;9.50;;
19812;SDS011;10066;48.108;11.448;2023-02-28T11:44:59;18.80;;;10.50;;
19812;SDS011;10066;48.108;11.448;2023-02-28T11:47:36;19.80;;;10.90;;
19812;SDS011;10066;48.108;11.448;2023-02-28T11:50:20;14.47;;;9.33;;
19812;SDS011;10066;48.108;11.448;2023-02-28T11:52:58;17.33;;;10.23;;
19812;SDS011;10066;48.108;11.448;2023-02-28T11:55:28;14.33;;;10.47;;
19812;SDS011;10066;48.108;11.448;2023-02-28T12:01:03;13.93;;;10.03;;
19812;SDS011;10066;48.108;11.448;2023-02-28T12:03:43;16.77;;;10.30;;
19812;SDS011;10066;48.108;11.448;2023-02-28T12:06:21;14.93;;;9.90;;
19812;SDS011;10066;48.108;11.448;2023-02-28T12:08:56;13.87;;;9.90;;
19812;SDS011;10066;48.108;11.448;2023-02-28T12:11:43;12.53;;;8.97;;
19812;SDS011;10066;48.108;11.448;2023-02-28T12:14:22;12.80;;;8.80;;
19812;SDS011;10066;48.108;11.448;2023-02-28T12:17:01;12.63;;;9.00;;
19812;SDS011;10066;48.108;11.448;2023-02-28T12:19:37;12.03;;;7.87;;
19812;SDS011;10066;48.108;11.448;2023-02-28T12:22:21;12.10;;;9.07;;
19812;SDS011;10066;48.108;11.448;2023-02-28T12:25:02;11.57;;;7.97;;
19812;SDS011;10066;48.108;11.448;2023-02-28T12:27:48;14.03;;;9.13;;
19812;SDS011;10066;48.108;11.448;2023-02-28T12:30:19;14.20;;;9.40;;
19812;SDS011;10066;48.108;11.448;2023-02-28T12:32:50;14.63;;;9.73;;
19812;SDS011;10066;48.108;11.448;2023-02-28T12:35:22;15.87;;;9.73;;
19812;SDS011;10066;48.108;11.448;2023-02-28T12:37:54;14.50;;;9.77;;
19812;SDS011;10066;48.108;11.448;2023-02-28T12:40:27;11.93;;;8.10;;
19812;SDS011;10066;48.108;11.448;2023-02-28T12:43:09;12.93;;;9.33;;
19812;SDS011;10066;48.108;11.448;2023-02-28T12:45:39;13.03;;;9.60;;
19812;SDS011;10066;48.108;11.448;2023-02-28T12:48:11;15.77;;;9.27;;
19812;SDS011;10066;48.108;11.448;2023-02-28T12:50:44;12.90;;;8.83;;
19812;SDS011;10066;48.108;11.448;2023-02-28T12:53:13;17.23;;;9.60;;
19812;SDS011;10066;48.108;11.448;2023-02-28T12:55:54;13.07;;;9.10;;
19812;SDS011;10066;48.108;11.448;2023-02-28T12:58:30;15.37;;;8.97;;
19812;SDS011;10066;48.108;11.448;2023-02-28T13:01:05;12.53;;;9.10;;
19812;SDS011;10066;48.108;11.448;2023-02-28T13:03:58;12.53;;;7.13;;
19812;SDS011;10066;48.108;11.448;2023-02-28T13:07:07;11.77;;;8.20;;
19812;SDS011;10066;48.108;11.448;2023-02-28T13:09:51;8.47;;;5.53;;
19812;SDS011;10066;48.108;11.448;2023-02-28T13:12:21;11.27;;;7.43;;
19812;SDS011;10066;48.108;11.448;2023-02-28T13:14:50;8.37;;;5.63;;
19812;SDS011;10066;48.108;11.448;2023-02-28T13:17:27;12.97;;;7.87;;
19812;SDS011;10066;48.108;11.448;2023-02-28T13:19:56;11.43;;;6.63;;
19812;SDS011;10066;48.108;11.448;2023-02-28T13:22:39;13.03;;;8.17;;
19812;SDS011;10066;48.108;11.448;2023-02-28T13:31:33;9.90;;;7.70;;
19812;SDS011;10066;48.108;11.448;2023-02-28T13:34:23;12.70;;;8.10;;
19812;SDS011;10066;48.108;11.448;2023-02-28T13:36:50;13.27;;;7.87;;
19812;SDS011;10066;48.108;11.448;2023-02-28T13:47:51;10.77;;;7.27;;
19812;SDS011;10066;48.108;11.448;2023-02-28T13:50:23;14.60;;;8.57;;
19812;SDS011;10066;48.108;11.448;2023-02-28T13:52:58;12.23;;;8.00;;
19812;SDS011;10066;48.108;11.448;2023-02-28T13:55:44;10.13;;;8.03;;
19812;SDS011;10066;48.108;11.448;2023-02-28T13:58:23;12.17;;;8.60;;
19812;SDS011;10066;48.108;11.448;2023-02-28T14:01:08;11.70;;;8.17;;
19812;SDS011;10066;48.108;11.448;2023-02-28T14:04:02;14.87;;;8.30;;
19812;SDS011;10066;48.108;11.448;2023-02-28T14:06:48;10.37;;;8.17;;
19812;SDS011;10066;48.108;11.448;2023-02-28T14:09:19;15.17;;;8.97;;
19812;SDS011;10066;48.108;11.448;2023-02-28T14:11:49;11.57;;;8.53;;
19812;SDS011;10066;48.108;11.448;2023-02-28T14:17:21;8.80;;;6.23;;
19812;SDS011;10066;48.108;11.448;2023-02-28T14:19:51;11.60;;;8.53;;
19812;SDS011;10066;48.108;11.448;2023-02-28T14:22:22;10.83;;;7.63;;
19812;SDS011;10066;48.108;11.448;2023-02-28T14:25:12;10.67;;;8.33;;
19812;SDS011;10066;48.108;11.448;2023-02-28T14:27:48;14.40;;;8.50;;
19812;SDS011;10066;48.108;11.448;2023-02-28T14:33:25;11.90;;;8.23;;
19812;SDS011;10066;48.108;11.448;2023-02-28T14:36:04;13.07;;;8.63;;
19812;SDS011;10066;48.108;11.448;2023-02-28T14:38:36;12.13;;;8.03;;
19812;SDS011;10066;48.108;11.448;2023-02-28T14:41:12;11.90;;;7.43;;
19812;SDS011;10066;48.108;11.448;2023-02-28T14:43:50;10.47;;;7.73;;
19812;SDS011;10066;48.108;11.448;2023-02-28T14:46:19;10.50;;;7.43;;
19812;SDS011;10066;48.108;11.448;2023-02-28T14:48:47;10.87;;;7.80;;
19812;SDS011;10066;48.108;11.448;2023-02-28T14:51:19;12.40;;;8.00;;
19812;SDS011;10066;48.108;11.448;2023-02-28T14:53:48;12.90;;;7.87;;
19812;SDS011;10066;48.108;11.448;2023-02-28T14:56:27;12.37;;;7.73;;
19812;SDS011;10066;48.108;11.448;2023-02-28T14:58:58;9.33;;;7.57;;
19812;SDS011;10066;48.108;11.448;2023-02-28T15:01:26;15.07;;;8.60;;
19812;SDS011;10066;48.108;11.448;2023-02-28T15:03:58;12.57;;;8.10;;
19812;SDS011;10066;48.108;11.448;2023-02-28T15:06:29;11.37;;;8.03;;
19812;SDS011;10066;48.108;11.448;2023-02-28T15:09:08;11.23;;;8.00;;
19812;SDS011;10066;48.108;11.448;2023-02-28T15:11:39;9.67;;;7.20;;
19812;SDS011;10066;48.108;11.448;2023-02-28T15:14:06;9.93;;;7.57;;